Weather Underground History

Measured at station KPAAUBUR15 on Fawn Lake
in the Lake Wynonah community, Auburn, PA


Station Historical Data
 
Daily Summary for November 19, 2017 Units:  English    Metric   Both
« Previous Day
Next Day »
Daily Weekly Monthly Yearly Custom
  Current: High: Low: Average:
Temperature: 44.1 °F 55.3 °F 44.1 °F 48.2 °F
Dew Point: 34.2 °F 53.9 °F 33.9 °F 42.4 °F
Humidity: 68% 99% 62% 81%
Wind Speed: 9.2mph 23.0mph 0.0mph 9.6mph
Wind Gust: 9.2mph 23.0mph - -
WindNW - - West
Pressure: 29.64 in 29.64 in 29.20 in -
Precipitation: 0.13 in      
Historical Graphs
 
 
Tabular Data for November 19, 2017
Time Temperature Dew Point Pressure Wind Wind Speed Wind Gust Humidity Rainfall Rate (Hourly) solar Conditions
00:04 47.8 °F 47.0 °F 29.33 in SSW 2.3 mph   97% 0.04 in WeatherDisplay:10.37 W/m2 -RA
00:09 47.9 °F 47.1 °F 29.33 in Calm     97% 0.04 in WeatherDisplay:10.37 W/m2 -RA
00:14 47.9 °F 47.1 °F 29.33 in NW 2.0 mph 2.0 mph 97% 0.04 in WeatherDisplay:10.37 W/m2 -RA
00:19 47.8 °F 47.0 °F 29.33 in Calm     97% 0.04 in WeatherDisplay:10.37 W/m2 -RA
00:24 47.8 °F 47.0 °F 29.32 in Calm     97% 0.05 in WeatherDisplay:10.37 W/m2 -RA
00:34 47.9 °F 47.1 °F 29.30 in Calm     97% 0.05 in WeatherDisplay:10.37 W/m2 -RA
00:39 48.2 °F 47.7 °F 29.31 in Calm     98% 0.06 in WeatherDisplay:10.37 W/m2 -RA
00:44 48.5 °F 48.0 °F 29.30 in SSE 4.0 mph 4.0 mph 98% 0.06 in WeatherDisplay:10.37 W/m2 -RA
00:49 48.7 °F 48.2 °F 29.30 in NW 2.3 mph   98% 0.05 in WeatherDisplay:10.37 W/m2 -RA
00:54 48.8 °F 48.3 °F 29.30 in Calm     98% 0.05 in WeatherDisplay:10.37 W/m2 -RA
00:59 49.1 °F 48.6 °F 29.30 in Calm     98% 0.05 in WeatherDisplay:10.37 W/m2 -RA
01:04 49.1 °F 48.6 °F 29.30 in West 3.5 mph 3.5 mph 98% 0.05 in WeatherDisplay:10.37 W/m2 OVC
01:09 49.3 °F 48.8 °F 29.29 in South 3.0 mph 3.0 mph 98% 0.05 in WeatherDisplay:10.37 W/m2 RA
01:14 49.3 °F 48.8 °F 29.27 in South 5.0 mph 5.0 mph 98% 0.05 in WeatherDisplay:10.37 W/m2 OVC
01:19 50.0 °F 49.5 °F 29.27 in South 6.9 mph 6.9 mph 98% 0.04 in WeatherDisplay:10.37 W/m2 OVC
01:24 50.4 °F 49.9 °F 29.26 in WNW 3.5 mph 3.5 mph 98% 0.04 in WeatherDisplay:10.37 W/m2 RA
01:35 50.9 °F 50.6 °F 29.25 in NE 5.8 mph 5.8 mph 99% 0.03 in WeatherDisplay:10.37 W/m2 OVC
01:36 51.0 °F 50.5 °F 29.25 in WNW 6.0 mph 6.0 mph 98% 0.02 in WeatherDisplay:10.37 W/m2 OVC
01:41 51.5 °F 51.2 °F 29.27 in SW 3.5 mph   99% 0.02 in WeatherDisplay:10.37 W/m2 OVC
01:51 51.9 °F 51.6 °F 29.27 in WNW 4.6 mph 4.6 mph 99% 0.03 in WeatherDisplay:10.37 W/m2 OVC
02:04 52.6 °F 52.1 °F 29.26 in SW 6.9 mph 6.9 mph 98% 0.04 in WeatherDisplay:10.37 W/m2 -RA
02:09 52.8 °F 52.3 °F 29.26 in SW 7.0 mph 7.0 mph 98% 0.04 in WeatherDisplay:10.37 W/m2 -RA
02:14 52.9 °F 52.4 °F 29.25 in NW 4.6 mph 4.6 mph 98% 0.04 in WeatherDisplay:10.37 W/m2 -RA
02:19 53.0 °F 52.5 °F 29.24 in NW 9.0 mph 9.0 mph 98% 0.04 in WeatherDisplay:10.37 W/m2 -RA
02:24 53.2 °F 52.7 °F 29.26 in SSW 3.5 mph 3.5 mph 98% 0.04 in WeatherDisplay:10.37 W/m2 -RA
02:29 53.2 °F 52.7 °F 29.25 in South 5.8 mph 5.8 mph 98% 0.04 in WeatherDisplay:10.37 W/m2 -RA
02:34 53.3 °F 52.8 °F 29.22 in WSW 1.2 mph 1.2 mph 98% 0.05 in WeatherDisplay:10.37 W/m2 -RA
02:44 53.4 °F 52.8 °F 29.23 in WSW 2.3 mph 2.3 mph 98% 0.05 in WeatherDisplay:10.37 W/m2 -RA
02:49 53.5 °F 52.9 °F 29.23 in West 1.2 mph 1.8 mph 98% 0.04 in WeatherDisplay:10.37 W/m2 -RA
02:55 53.6 °F 53.0 °F 29.24 in WSW 3.5 mph 3.5 mph 98% 0.04 in WeatherDisplay:10.37 W/m2 -RA
03:00 53.8 °F 53.2 °F 29.24 in WSW 5.0 mph 5.0 mph 98% 0.03 in WeatherDisplay:10.37 W/m2 -RA
03:05 53.9 °F 53.3 °F 29.23 in WNW 8.0 mph 8.0 mph 98% 0.03 in WeatherDisplay:10.37 W/m2 -RA
03:10 54.0 °F 53.4 °F 29.23 in West 8.1 mph 8.1 mph 98% 0.02 in WeatherDisplay:10.37 W/m2 -RA
03:15 54.1 °F 53.5 °F 29.23 in WSW 2.3 mph 2.3 mph 98% 0.02 in WeatherDisplay:10.37 W/m2 -RA
03:30 54.3 °F 53.5 °F 29.21 in SW 5.8 mph 5.8 mph 97% 0.01 in WeatherDisplay:10.37 W/m2 OVC
03:35 54.2 °F 53.4 °F 29.22 in SW 4.6 mph 4.6 mph 97% 0.00 in WeatherDisplay:10.37 W/m2 OVC
03:45 54.3 °F 53.5 °F 29.21 in WSW 9.2 mph 9.2 mph 97% 0.00 in WeatherDisplay:10.37 W/m2 OVC
03:50 54.5 °F 53.7 °F 29.21 in West 10.4 mph 10.4 mph 97% 0.00 in WeatherDisplay:10.37 W/m2 OVC
03:55 54.4 °F 53.6 °F 29.21 in SW 8.0 mph 8.0 mph 97% 0.00 in WeatherDisplay:10.37 W/m2 OVC
04:00 54.4 °F 53.6 °F 29.20 in SW 4.0 mph 4.0 mph 97% 0.00 in WeatherDisplay:10.37 W/m2 BKN
04:05 54.4 °F 53.6 °F 29.21 in SW 5.8 mph 5.8 mph 97% 0.00 in WeatherDisplay:10.37 W/m2 BKN
04:10 54.5 °F 53.7 °F 29.21 in South 9.2 mph 9.2 mph 97% 0.00 in WeatherDisplay:10.37 W/m2 BKN
04:20 54.8 °F 53.7 °F 29.21 in SW 18.4 mph 18.4 mph 96% 0.00 in WeatherDisplay:10.37 W/m2 BKN
04:25 54.9 °F 53.8 °F 29.22 in SW 8.1 mph 8.1 mph 96% 0.01 in WeatherDisplay:10.37 W/m2 RA
04:30 55.0 °F 53.9 °F 29.23 in SE 5.8 mph 5.8 mph 96% 0.01 in WeatherDisplay:10.37 W/m2 BKN
04:35 55.1 °F 53.7 °F 29.23 in WSW 9.0 mph 9.0 mph 95% 0.01 in WeatherDisplay:10.37 W/m2 BKN
04:41 55.3 °F 53.9 °F 29.25 in West 11.5 mph 11.5 mph 95% 0.01 in WeatherDisplay:10.37 W/m2 BKN
04:46 55.1 °F 53.4 °F 29.24 in West 11.5 mph 11.5 mph 94% 0.01 in WeatherDisplay:10.37 W/m2 BKN
04:51 54.8 °F 53.1 °F 29.25 in West 11.5 mph 11.5 mph 94% 0.01 in WeatherDisplay:10.37 W/m2 BKN
04:56 54.6 °F 52.3 °F 29.25 in SW 10.4 mph 10.4 mph 92% 0.01 in WeatherDisplay:10.37 W/m2 BKN
04:59 54.6 °F 52.3 °F 29.25 in West 13.8 mph 13.8 mph 92% 0.01 in WeatherDisplay:10.37 W/m2 BKN
05:20 51.2 °F 46.2 °F 29.29 in WSW 15.0 mph 15.0 mph 83% 0.01 in WeatherDisplay:10.37 W/m2 BKN
05:25 50.5 °F 45.5 °F 29.29 in WSW 6.9 mph 6.9 mph 83% 0.00 in WeatherDisplay:10.37 W/m2 BKN
05:30 50.0 °F 44.7 °F 29.30 in NW 20.0 mph 20.0 mph 82% 0.00 in WeatherDisplay:10.37 W/m2 OVC
05:35 49.5 °F 44.2 °F 29.31 in SSW 16.0 mph 16.0 mph 82% 0.00 in WeatherDisplay:10.37 W/m2 OVC
05:40 49.0 °F 43.7 °F 29.32 in WSW 5.8 mph 5.8 mph 82% 0.00 in WeatherDisplay:10.37 W/m2 OVC
05:50 47.9 °F 42.0 °F 29.33 in West 9.2 mph 9.2 mph 80% 0.00 in WeatherDisplay:10.37 W/m2 OVC
06:00 47.3 °F 41.8 °F 29.34 in WNW 5.0 mph 5.0 mph 81% 0.00 in WeatherDisplay:10.37 W/m2 BKN
06:05 47.0 °F 41.1 °F 29.35 in WNW 19.6 mph 19.6 mph 80% 0.00 in WeatherDisplay:10.37 W/m2 BKN
06:10 46.9 °F 41.4 °F 29.36 in SSW 5.8 mph 5.8 mph 81% 0.00 in WeatherDisplay:10.37 W/m2 BKN
06:20 46.5 °F 40.7 °F 29.37 in SW 14.0 mph 14.0 mph 80% 0.00 in WeatherDisplay:10.37 W/m2 BKN
06:25 46.3 °F 40.1 °F 29.37 in West 9.0 mph 9.0 mph 79% 0.00 in WeatherDisplay:10.37 W/m2 BKN
06:30 46.1 °F 39.6 °F 29.38 in WNW 16.1 mph 16.1 mph 78% 0.00 in WeatherDisplay:10.37 W/m2 BKN
06:35 45.8 °F 39.7 °F 29.38 in WNW 6.9 mph 6.9 mph 79% 0.00 in WeatherDisplay:10.37 W/m2 BKN
06:45 45.5 °F 39.4 °F 29.40 in West 11.5 mph 11.5 mph 79% 0.00 in WeatherDisplay:10.37 W/m2 BKN
06:50 45.4 °F 39.6 °F 29.40 in WNW 10.4 mph 10.4 mph 80% 0.00 in WeatherDisplay:10.37 W/m2 BKN
06:55 45.4 °F 39.3 °F 29.41 in WSW 14.0 mph 14.0 mph 79% 0.00 in WeatherDisplay:10.37 W/m2 BKN
07:00 45.2 °F 39.1 °F 29.41 in WSW 8.1 mph 8.1 mph 79% 0.00 in WeatherDisplay:10.37 W/m2 OVC
07:16 44.9 °F 38.8 °F 29.42 in NW 9.0 mph 9.0 mph 79% 0.00 in WeatherDisplay:10.37 W/m2 OVC
07:21 44.8 °F 38.7 °F 29.42 in NW 6.0 mph 6.0 mph 79% 0.00 in WeatherDisplay:10.37 W/m2 OVC
07:26 44.7 °F 38.6 °F 29.43 in SW 8.1 mph 8.1 mph 79% 0.00 in WeatherDisplay:10.37 W/m2 OVC
07:41 44.5 °F 38.1 °F 29.44 in WNW 13.8 mph 13.8 mph 78% 0.00 in WeatherDisplay:10.37 W/m2 OVC
07:56 44.5 °F 37.7 °F 29.46 in SW 12.7 mph 12.7 mph 77% 0.00 in WeatherDisplay:10.37 W/m2 OVC
08:01 44.6 °F 37.8 °F 29.47 in WNW 8.1 mph 8.1 mph 77% 0.00 in WeatherDisplay:10.37 W/m2 CLR
08:12 44.6 °F 37.5 °F 29.48 in NNW 20.0 mph 20.0 mph 76% 0.00 in WeatherDisplay:10.37 W/m2 CLR
08:17 44.7 °F 37.6 °F 29.48 in SW 12.7 mph 12.7 mph 76% 0.00 in WeatherDisplay:10.37 W/m2 CLR
08:22 44.6 °F 37.5 °F 29.49 in NW 11.5 mph 11.5 mph 76% 0.00 in WeatherDisplay:10.37 W/m2 CLR
08:27 44.6 °F 37.5 °F 29.50 in NNW 11.5 mph 11.5 mph 76% 0.00 in WeatherDisplay:10.37 W/m2 CLR
08:37 44.6 °F 37.5 °F 29.50 in WNW 15.0 mph 15.0 mph 76% 0.00 in WeatherDisplay:10.37 W/m2 CLR
08:42 44.7 °F 37.6 °F 29.50 in WNW 11.5 mph 11.5 mph 76% 0.00 in WeatherDisplay:10.37 W/m2 CLR
08:47 44.7 °F 37.3 °F 29.50 in West 11.5 mph 11.5 mph 75% 0.00 in WeatherDisplay:10.37 W/m2 CLR
08:52 44.8 °F 37.4 °F 29.51 in NW 16.1 mph 16.1 mph 75% 0.00 in WeatherDisplay:10.37 W/m2 CLR
08:57 44.8 °F 37.4 °F 29.51 in WNW 23.0 mph 23.0 mph 75% 0.00 in WeatherDisplay:10.37 W/m2 CLR
09:02 44.8 °F 37.0 °F 29.51 in NNW 16.1 mph 16.1 mph 74% 0.00 in WeatherDisplay:10.37 W/m2 BKN
09:07 44.8 °F 36.7 °F 29.51 in NW 16.1 mph 16.1 mph 73% 0.00 in WeatherDisplay:10.37 W/m2 BKN
09:12 44.9 °F 36.8 °F 29.52 in NW 10.4 mph 10.4 mph 73% 0.00 in WeatherDisplay:10.37 W/m2 BKN
09:23 45.2 °F 36.7 °F 29.53 in NW 8.0 mph 8.0 mph 72% 0.00 in WeatherDisplay:10.37 W/m2 BKN
09:27 45.3 °F 36.4 °F 29.53 in WNW 13.8 mph 13.8 mph 71% 0.00 in WeatherDisplay:10.37 W/m2 BKN
09:33 45.2 °F 36.4 °F 29.53 in West 20.7 mph 20.7 mph 71% 0.00 in WeatherDisplay:10.37 W/m2 BKN
09:43 45.3 °F 36.4 °F 29.54 in NW 16.1 mph 16.1 mph 71% 0.00 in WeatherDisplay:10.37 W/m2 BKN
09:44 45.3 °F 36.4 °F 29.53 in NW 18.4 mph 18.4 mph 71% 0.00 in WeatherDisplay:10.37 W/m2 BKN
09:49 45.4 °F 36.9 °F 29.53 in NNW 16.1 mph 16.1 mph 72% 0.00 in WeatherDisplay:10.37 W/m2 BKN
09:54 45.5 °F 36.6 °F 29.53 in NNW 11.5 mph 11.5 mph 71% 0.00 in WeatherDisplay:10.37 W/m2 BKN
09:59 45.7 °F 37.5 °F 29.54 in NW 7.0 mph 7.0 mph 73% 0.00 in WeatherDisplay:10.37 W/m2 BKN
10:04 45.8 °F 36.6 °F 29.55 in NW 20.7 mph 20.7 mph 70% 0.00 in WeatherDisplay:10.37 W/m2 BKN
10:09 45.7 °F 36.1 °F 29.55 in West 15.0 mph 15.0 mph 69% 0.00 in WeatherDisplay:10.37 W/m2 BKN
10:14 45.7 °F 36.5 °F 29.55 in NW 21.9 mph 21.9 mph 70% 0.00 in WeatherDisplay:10.37 W/m2 BKN
10:19 45.6 °F 36.4 °F 29.56 in West 19.6 mph 19.6 mph 70% 0.00 in WeatherDisplay:10.37 W/m2 BKN
10:24 45.6 °F 36.4 °F 29.56 in NNW 12.7 mph 12.7 mph 70% 0.00 in WeatherDisplay:10.37 W/m2 BKN
10:29 45.6 °F 36.7 °F 29.57 in WNW 4.6 mph 4.6 mph 71% 0.00 in WeatherDisplay:10.37 W/m2 BKN
10:34 45.6 °F 36.7 °F 29.57 in West 5.8 mph 5.8 mph 71% 0.00 in WeatherDisplay:10.37 W/m2 BKN
10:44 45.6 °F 36.7 °F 29.58 in West 4.6 mph 4.6 mph 71% 0.00 in WeatherDisplay:10.37 W/m2 BKN
10:49 45.6 °F 36.0 °F 29.58 in NW 16.0 mph 16.0 mph 69% 0.00 in WeatherDisplay:10.37 W/m2 BKN
10:59 45.6 °F 36.4 °F 29.58 in WNW 9.0 mph 9.0 mph 70% 0.00 in WeatherDisplay:10.37 W/m2 BKN
11:04 45.7 °F 36.1 °F 29.58 in NW 16.1 mph 16.1 mph 69% 0.00 in WeatherDisplay:10.37 W/m2 BKN
11:14 46.2 °F 36.2 °F 29.58 in WNW 11.5 mph 11.5 mph 68% 0.00 in WeatherDisplay:10.37 W/m2 BKN
11:35 47.3 °F 36.1 °F 29.58 in WSW 19.6 mph 19.6 mph 65% 0.00 in WeatherDisplay:10.37 W/m2 BKN
11:40 47.2 °F 36.4 °F 29.59 in WNW 11.5 mph 11.5 mph 66% 0.00 in WeatherDisplay:10.37 W/m2 BKN
11:45 47.3 °F 36.5 °F 29.59 in NW 8.1 mph 8.1 mph 66% 0.00 in WeatherDisplay:10.37 W/m2 BKN
11:50 47.8 °F 36.6 °F 29.60 in NW 10.0 mph 10.0 mph 65% 0.00 in WeatherDisplay:10.37 W/m2 BKN
12:00 47.7 °F 35.7 °F 29.60 in WNW 19.6 mph 19.6 mph 63% 0.00 in WeatherDisplay:10.37 W/m2 BKN
12:05 47.4 °F 35.4 °F 29.60 in NNW 11.5 mph 11.5 mph 63% 0.00 in WeatherDisplay:10.37 W/m2 BKN
12:10 47.5 °F 35.9 °F 29.59 in WNW 9.2 mph 9.2 mph 64% 0.00 in WeatherDisplay:10.37 W/m2 BKN
12:15 48.1 °F 36.5 °F 29.60 in NNW 12.0 mph 12.0 mph 64% 0.00 in WeatherDisplay:10.37 W/m2 BKN
12:20 48.1 °F 35.7 °F 29.60 in WNW 19.6 mph 19.6 mph 62% 0.00 in WeatherDisplay:10.37 W/m2 BKN
12:25 48.1 °F 35.7 °F 29.60 in NW 11.5 mph 11.5 mph 62% 0.00 in WeatherDisplay:10.37 W/m2 BKN
12:30 47.5 °F 35.1 °F 29.60 in NW 13.8 mph 13.8 mph 62% 0.00 in WeatherDisplay:10.37 W/m2 BKN
12:35 47.0 °F 35.4 °F 29.60 in WNW 9.0 mph 9.0 mph 64% 0.00 in WeatherDisplay:10.37 W/m2 BKN
12:40 46.8 °F 35.6 °F 29.60 in WNW 10.4 mph 10.4 mph 65% 0.00 in WeatherDisplay:10.37 W/m2 BKN
12:45 46.7 °F 35.9 °F 29.60 in WNW 11.5 mph 11.5 mph 66% 0.00 in WeatherDisplay:10.37 W/m2 BKN
12:50 46.7 °F 36.3 °F 29.60 in WNW 8.1 mph 8.1 mph 67% 0.00 in WeatherDisplay:10.37 W/m2 BKN
12:55 46.5 °F 36.1 °F 29.60 in West 10.4 mph 10.4 mph 67% 0.00 in WeatherDisplay:10.37 W/m2 BKN
13:00 46.4 °F 36.0 °F 29.60 in WNW 13.8 mph 13.8 mph 67% 0.00 in WeatherDisplay:10.37 W/m2 BKN
13:05 46.2 °F 36.2 °F 29.61 in WNW 11.0 mph 11.0 mph 68% 0.00 in WeatherDisplay:10.37 W/m2 BKN
13:10 45.9 °F 35.9 °F 29.61 in NW 5.8 mph 5.8 mph 68% 0.00 in WeatherDisplay:10.37 W/m2 BKN
13:21 45.5 °F 35.9 °F 29.61 in NW 6.9 mph 6.9 mph 69% 0.00 in WeatherDisplay:10.37 W/m2 BKN
13:26 45.4 °F 36.2 °F 29.61 in WSW 8.1 mph 8.1 mph 70% 0.00 in WeatherDisplay:10.37 W/m2 BKN
13:31 45.3 °F 36.1 °F 29.61 in West 9.2 mph 9.2 mph 70% 0.00 in WeatherDisplay:10.37 W/m2 BKN
13:41 45.2 °F 35.6 °F 29.61 in SW 13.0 mph 13.0 mph 69% 0.00 in WeatherDisplay:10.37 W/m2 BKN
13:55 45.3 °F 35.4 °F 29.61 in NW 9.2 mph 9.2 mph 68% 0.00 in WeatherDisplay:10.37 W/m2 BKN
14:00 45.5 °F 35.9 °F 29.61 in WNW 11.0 mph 11.0 mph 69% 0.00 in WeatherDisplay:10.37 W/m2 CLR
14:06 45.5 °F 35.9 °F 29.61 in West 13.0 mph 13.0 mph 69% 0.00 in WeatherDisplay:10.37 W/m2 CLR
14:16 45.4 °F 35.5 °F 29.62 in WNW 10.4 mph 10.4 mph 68% 0.00 in WeatherDisplay:10.37 W/m2 CLR
14:21 45.4 °F 35.5 °F 29.62 in West 10.4 mph 10.4 mph 68% 0.00 in WeatherDisplay:10.37 W/m2 CLR
14:26 45.4 °F 35.8 °F 29.62 in WNW 6.9 mph 6.9 mph 69% 0.00 in WeatherDisplay:10.37 W/m2 CLR
14:31 45.1 °F 35.2 °F 29.63 in NW 5.0 mph 5.0 mph 68% 0.00 in WeatherDisplay:10.37 W/m2 CLR
14:36 44.8 °F 34.9 °F 29.63 in WNW 9.2 mph 9.2 mph 68% 0.00 in WeatherDisplay:10.37 W/m2 CLR
14:41 44.5 °F 35.0 °F 29.62 in West 9.2 mph 9.2 mph 69% 0.00 in WeatherDisplay:10.37 W/m2 CLR
14:46 44.3 °F 34.0 °F 29.63 in WNW 12.7 mph 12.7 mph 67% 0.00 in WeatherDisplay:10.37 W/m2 CLR
14:51 44.2 °F 33.9 °F 29.63 in WNW 16.1 mph 16.1 mph 67% 0.00 in WeatherDisplay:10.37 W/m2 CLR
14:56 44.1 °F 34.2 °F 29.64 in NW 9.2 mph 9.2 mph 68% 0.00 in WeatherDisplay:10.37 W/m2 CLR
Lake Wynonah, (Auburn) PA USA
Compliments of Weather Underground - 1.75 mb